createdAt,value
2018-11-10T00:02:39.327Z,30.40
2018-11-10T00:05:43.421Z,29.13
2018-11-10T00:08:47.506Z,35.30
2018-11-10T00:11:51.569Z,27.43
2018-11-10T00:14:55.751Z,43.53
2018-11-10T00:17:59.853Z,35.53
2018-11-10T00:21:03.967Z,26.47
2018-11-10T00:24:08.120Z,31.50
2018-11-10T00:27:12.263Z,28.60
2018-11-10T00:30:18.671Z,32.80
2018-11-10T00:33:22.772Z,30.80
2018-11-10T00:36:26.876Z,30.27
2018-11-10T00:39:31.317Z,27.37
2018-11-10T00:42:35.477Z,30.73
2018-11-10T00:45:39.594Z,25.50
2018-11-10T00:48:43.739Z,36.10
2018-11-10T00:51:47.956Z,29.03
2018-11-10T00:54:52.084Z,34.37
2018-11-10T00:57:56.308Z,29.33
2018-11-10T01:01:00.579Z,25.90
2018-11-10T01:04:05.086Z,31.93
2018-11-10T01:07:09.151Z,35.77
2018-11-10T01:10:14.120Z,30.63
2018-11-10T01:13:18.227Z,28.27
2018-11-10T01:16:22.420Z,24.53
2018-11-10T01:19:26.589Z,29.23
2018-11-10T01:22:30.744Z,28.07
2018-11-10T01:25:34.843Z,28.20
2018-11-10T01:28:38.940Z,23.93
2018-11-10T01:31:43.043Z,30.77
2018-11-10T01:34:47.108Z,28.70
2018-11-10T01:37:51.228Z,28.00
2018-11-10T01:40:55.279Z,23.73
2018-11-10T01:43:59.388Z,29.87
2018-11-10T01:47:03.575Z,27.67
2018-11-10T01:50:08.462Z,24.73
2018-11-10T01:53:12.558Z,31.83
2018-11-10T01:56:16.619Z,31.30
2018-11-10T01:59:20.663Z,35.83
2018-11-10T02:02:31.089Z,31.73
2018-11-10T02:05:35.140Z,28.83
2018-11-10T02:08:39.174Z,26.20
2018-11-10T02:11:43.316Z,27.20
2018-11-10T02:14:47.361Z,37.93
2018-11-10T02:17:51.730Z,31.23
2018-11-10T02:20:55.794Z,35.07
2018-11-10T02:23:59.897Z,28.17
2018-11-10T02:27:06.595Z,28.17
2018-11-10T02:30:11.570Z,30.60
2018-11-10T02:33:15.761Z,41.43
2018-11-10T02:36:19.847Z,44.67
2018-11-10T02:39:23.901Z,41.50
2018-11-10T02:42:27.996Z,36.10
2018-11-10T02:45:32.045Z,45.00
2018-11-10T02:48:36.225Z,38.03
2018-11-10T02:51:40.292Z,37.97
2018-11-10T02:54:44.541Z,42.07
2018-11-10T02:57:48.588Z,42.37
2018-11-10T03:00:52.680Z,34.90
2018-11-10T03:03:56.839Z,38.20
2018-11-10T03:07:00.931Z,33.97
2018-11-10T03:10:05.966Z,25.83
2018-11-10T03:13:10.016Z,34.13
2018-11-10T03:16:14.088Z,37.17
2018-11-10T03:19:18.139Z,30.90
2018-11-10T03:22:22.206Z,27.83
2018-11-10T03:25:26.248Z,32.83
2018-11-10T03:28:30.311Z,29.03
2018-11-10T03:31:34.384Z,31.27
2018-11-10T03:34:38.420Z,52.90
2018-11-10T03:37:42.677Z,40.07
2018-11-10T03:40:46.785Z,27.80
2018-11-10T03:43:50.821Z,29.47
2018-11-10T03:46:54.888Z,33.00
2018-11-10T03:49:58.919Z,33.17
2018-11-10T03:53:03.071Z,30.20
2018-11-10T03:56:07.771Z,28.57
2018-11-10T03:59:11.836Z,29.53
2018-11-10T04:02:15.902Z,27.63
2018-11-10T04:05:19.996Z,30.40
2018-11-10T04:08:23.995Z,26.20
2018-11-10T04:11:28.034Z,24.17
2018-11-10T04:14:32.097Z,21.10
2018-11-10T04:17:36.457Z,22.40
2018-11-10T04:20:40.524Z,26.50
2018-11-10T04:23:44.647Z,26.90
2018-11-10T04:26:48.736Z,27.90
2018-11-10T04:29:52.774Z,28.93
2018-11-10T04:32:56.813Z,27.50
2018-11-10T04:36:00.891Z,28.87
2018-11-10T04:39:07.194Z,28.07
2018-11-10T04:42:11.275Z,32.47
2018-11-10T04:45:15.364Z,27.80
2018-11-10T04:48:19.447Z,31.00
2018-11-10T04:51:23.533Z,29.80
2018-11-10T04:54:27.621Z,34.30
2018-11-10T04:57:31.662Z,27.70
2018-11-10T05:00:35.751Z,28.07
2018-11-10T05:03:40.163Z,55.57
2018-11-10T05:06:44.312Z,39.80
2018-11-10T05:09:48.356Z,27.97
2018-11-10T05:12:52.376Z,26.07
2018-11-10T05:15:56.455Z,29.53
2018-11-10T05:19:00.514Z,27.00
2018-11-10T05:22:04.596Z,27.10
2018-11-10T05:25:09.709Z,27.47
2018-11-10T05:28:13.742Z,27.07
2018-11-10T05:31:17.904Z,26.03
2018-11-10T05:34:21.921Z,27.77
2018-11-10T05:37:25.996Z,31.33
2018-11-10T05:40:30.075Z,26.67
2018-11-10T05:43:34.176Z,24.27
2018-11-10T05:46:38.264Z,27.27
2018-11-10T05:49:42.408Z,28.57
2018-11-10T05:52:46.477Z,44.63
2018-11-10T05:55:50.628Z,31.67
2018-11-10T05:58:54.742Z,34.40
2018-11-10T06:01:58.815Z,26.23
2018-11-10T06:05:02.975Z,26.53
2018-11-10T06:08:07.027Z,29.23
2018-11-10T06:11:11.224Z,29.80
2018-11-10T06:14:15.318Z,24.07
2018-11-10T06:17:19.438Z,27.40
2018-11-10T06:20:23.541Z,26.57
2018-11-10T06:23:27.599Z,28.67
2018-11-10T06:26:31.702Z,33.40
2018-11-10T06:29:35.771Z,29.70
2018-11-10T06:32:39.898Z,26.43
2018-11-10T06:35:43.965Z,28.37
2018-11-10T06:38:48.033Z,28.30
2018-11-10T06:41:52.093Z,23.23
2018-11-10T06:44:56.170Z,29.10
2018-11-10T06:48:00.250Z,26.77
2018-11-10T06:51:04.346Z,27.50
2018-11-10T06:54:08.389Z,23.10
2018-11-10T06:57:12.945Z,23.27
2018-11-10T07:00:17.024Z,23.37
2018-11-10T07:03:21.121Z,24.30
2018-11-10T07:06:25.712Z,28.80
2018-11-10T07:09:29.908Z,24.87
2018-11-10T07:12:33.937Z,26.13
2018-11-10T07:15:38.018Z,27.17
2018-11-10T07:18:42.334Z,24.67
2018-11-10T07:21:46.469Z,23.90
2018-11-10T07:24:50.672Z,22.90
2018-11-10T07:27:54.718Z,22.97
2018-11-10T07:31:01.729Z,35.10
2018-11-10T07:34:05.833Z,38.10
2018-11-10T07:37:09.972Z,34.90
2018-11-10T07:40:14.447Z,43.20
2018-11-10T07:43:18.672Z,32.60
2018-11-10T07:46:22.914Z,33.07
2018-11-10T07:49:27.065Z,39.17
2018-11-10T07:52:31.208Z,31.83
2018-11-10T07:55:35.295Z,31.43
2018-11-10T07:58:39.457Z,34.27
2018-11-10T08:01:43.739Z,27.73
2018-11-10T08:04:47.852Z,31.80
2018-11-10T08:07:52.081Z,31.20
2018-11-10T08:10:56.255Z,30.13
2018-11-10T08:14:00.405Z,49.97
2018-11-10T08:17:04.641Z,32.47
2018-11-10T08:20:09.313Z,32.10
2018-11-10T08:23:13.412Z,27.63
2018-11-10T08:26:17.622Z,27.87
2018-11-10T08:29:21.826Z,28.23
2018-11-10T08:32:26.399Z,29.87
2018-11-10T08:35:30.617Z,34.57
2018-11-10T08:38:34.895Z,31.70
2018-11-10T08:41:39.227Z,28.97
2018-11-10T08:44:43.599Z,29.00
2018-11-10T08:47:47.734Z,27.40
2018-11-10T08:50:51.925Z,22.43
2018-11-10T08:53:56.005Z,25.77
2018-11-10T08:57:00.150Z,26.03
2018-11-10T09:00:05.366Z,25.37
2018-11-10T09:03:09.443Z,27.50
2018-11-10T09:06:13.620Z,31.87
2018-11-10T09:09:17.831Z,26.83
2018-11-10T09:12:28.274Z,25.77
2018-11-10T09:15:32.547Z,26.40
2018-11-10T09:18:36.761Z,25.70
2018-11-10T09:21:40.898Z,28.43
2018-11-10T09:24:45.166Z,27.03
2018-11-10T09:27:49.372Z,24.93
2018-11-10T09:30:53.734Z,22.37
2018-11-10T09:33:57.854Z,21.00
2018-11-10T09:37:01.954Z,18.80
2018-11-10T09:40:07.741Z,24.07
2018-11-10T09:43:11.906Z,20.37
2018-11-10T09:46:16.025Z,20.07
2018-11-10T09:49:20.436Z,20.83
2018-11-10T09:52:24.671Z,24.17
2018-11-10T09:55:28.804Z,18.90
2018-11-10T09:58:32.958Z,20.00
2018-11-10T10:01:37.387Z,20.23
2018-11-10T10:04:41.384Z,18.97
2018-11-10T10:07:45.782Z,15.97
2018-11-10T10:10:49.899Z,18.30
2018-11-10T10:13:54.001Z,20.77
2018-11-10T10:16:58.121Z,19.30
2018-11-10T10:20:02.294Z,17.90
2018-11-10T10:23:06.479Z,23.00
2018-11-10T10:26:10.638Z,18.83
2018-11-10T10:29:14.714Z,22.43
2018-11-10T10:32:18.931Z,19.07
2018-11-10T10:35:23.181Z,17.00
2018-11-10T10:38:27.168Z,16.43
2018-11-10T10:41:31.277Z,20.53
2018-11-10T10:44:35.371Z,24.90
2018-11-10T10:47:39.629Z,22.60
2018-11-10T10:50:44.227Z,23.23
2018-11-10T10:53:48.332Z,19.50
2018-11-10T10:56:52.464Z,19.40
2018-11-10T10:59:56.600Z,20.17
2018-11-10T11:03:06.048Z,22.70
2018-11-10T11:06:10.192Z,19.77
2018-11-10T11:09:14.303Z,21.47
2018-11-10T11:12:18.736Z,22.73
2018-11-10T11:15:23.248Z,20.07
2018-11-10T11:18:30.277Z,20.03
2018-11-10T11:21:34.374Z,19.30
2018-11-10T11:24:38.788Z,20.03
2018-11-10T11:27:42.934Z,20.53
2018-11-10T11:30:46.987Z,21.93
2018-11-10T11:33:51.138Z,23.77
2018-11-10T11:36:55.386Z,21.00
2018-11-10T11:39:59.473Z,24.70
2018-11-10T11:43:03.606Z,21.37
2018-11-10T11:46:07.711Z,21.87
2018-11-10T11:49:11.878Z,28.77
2018-11-10T11:52:16.041Z,18.60
2018-11-10T11:55:20.120Z,24.97
2018-11-10T11:58:24.408Z,22.97
2018-11-10T12:01:28.363Z,25.13
2018-11-10T12:04:32.494Z,23.53
2018-11-10T12:07:36.725Z,19.70
2018-11-10T12:10:40.839Z,23.13
2018-11-10T12:13:45.240Z,17.77
2018-11-10T12:16:49.994Z,22.63
2018-11-10T12:19:54.076Z,25.37
2018-11-10T12:22:58.260Z,22.07
2018-11-10T12:26:02.744Z,25.50
2018-11-10T12:29:06.894Z,21.57
2018-11-10T12:32:10.982Z,21.97
2018-11-10T12:35:15.198Z,23.90
2018-11-10T12:38:19.260Z,23.90
2018-11-10T12:41:23.386Z,19.53
2018-11-10T12:44:27.524Z,20.63
2018-11-10T12:47:31.738Z,29.20
2018-11-10T12:50:35.779Z,26.30
2018-11-10T12:53:39.818Z,20.10
2018-11-10T12:56:43.976Z,19.73
2018-11-10T12:59:48.034Z,20.90
2018-11-10T13:02:52.127Z,21.90
2018-11-10T13:05:56.199Z,24.10
2018-11-10T13:09:00.327Z,22.20
2018-11-10T13:12:04.783Z,20.93
2018-11-10T13:15:09.312Z,25.00
2018-11-10T13:18:13.383Z,23.20
2018-11-10T13:21:17.454Z,21.47
2018-11-10T13:24:21.592Z,27.33
2018-11-10T13:27:25.867Z,21.33
2018-11-10T13:30:30.074Z,25.30
2018-11-10T13:33:34.091Z,22.07
2018-11-10T13:36:38.181Z,22.80
2018-11-10T13:39:42.328Z,21.63
2018-11-10T13:42:46.390Z,22.97
2018-11-10T13:45:50.485Z,26.03
2018-11-10T13:48:54.545Z,23.57
2018-11-10T13:51:59.060Z,23.93
2018-11-10T13:55:02.748Z,21.73
2018-11-10T13:58:06.874Z,22.00
2018-11-10T14:01:10.957Z,25.33
2018-11-10T14:04:15.115Z,20.70
2018-11-10T14:07:19.247Z,21.33
2018-11-10T14:10:23.390Z,22.97
2018-11-10T14:13:27.458Z,23.83
2018-11-10T14:16:31.553Z,26.03
2018-11-10T14:19:35.957Z,21.20
2018-11-10T14:22:40.055Z,25.13
2018-11-10T14:25:44.340Z,27.07
2018-11-10T14:28:48.417Z,24.60
2018-11-10T14:31:52.490Z,23.23
2018-11-10T14:34:56.662Z,26.17
2018-11-10T14:38:00.708Z,23.30
2018-11-10T14:41:05.368Z,24.67
2018-11-10T14:44:09.814Z,25.20
2018-11-10T14:47:13.928Z,24.00
2018-11-10T14:50:18.877Z,26.73
2018-11-10T14:53:23.098Z,18.97
2018-11-10T14:56:27.237Z,18.83
2018-11-10T14:59:31.349Z,22.80
2018-11-10T15:02:35.493Z,19.10
2018-11-10T15:05:39.625Z,21.93
2018-11-10T15:08:44.030Z,21.30
2018-11-10T15:11:48.469Z,23.67
2018-11-10T15:14:52.551Z,17.83
2018-11-10T15:17:56.779Z,19.53
2018-11-10T15:21:01.025Z,20.60
2018-11-10T15:24:05.574Z,23.97
2018-11-10T15:27:09.804Z,19.47
2018-11-10T15:30:16.537Z,24.57
2018-11-10T15:33:20.799Z,22.17
2018-11-10T15:36:25.051Z,17.33
2018-11-10T15:39:29.159Z,23.20
2018-11-10T15:42:33.516Z,15.23
2018-11-10T15:45:37.592Z,21.97
2018-11-10T15:48:41.833Z,21.27
2018-11-10T15:51:45.968Z,20.77
2018-11-10T15:54:50.084Z,19.97
2018-11-10T15:57:54.197Z,20.17
2018-11-10T16:00:58.408Z,18.20
2018-11-10T16:04:02.675Z,18.87
2018-11-10T16:07:06.897Z,22.47
2018-11-10T16:10:11.574Z,18.90
2018-11-10T16:13:15.835Z,17.83
2018-11-10T16:16:19.969Z,19.40
2018-11-10T16:19:24.711Z,19.67
2018-11-10T16:22:29.058Z,25.00
2018-11-10T16:25:33.431Z,22.40
2018-11-10T16:28:37.701Z,22.20
2018-11-10T16:31:41.735Z,22.40
2018-11-10T16:34:45.866Z,20.77
2018-11-10T16:37:49.969Z,23.43
2018-11-10T16:40:54.088Z,21.57
2018-11-10T16:43:58.183Z,24.83
2018-11-10T16:47:02.339Z,21.10
2018-11-10T16:50:07.143Z,28.57
2018-11-10T16:53:11.413Z,26.47
2018-11-10T16:56:15.601Z,23.47
2018-11-10T16:59:19.853Z,25.60
2018-11-10T17:02:24.319Z,25.63
2018-11-10T17:05:28.522Z,22.53
2018-11-10T17:08:32.842Z,27.37
2018-11-10T17:11:37.109Z,23.10
2018-11-10T17:14:41.278Z,22.53
2018-11-10T17:17:45.427Z,25.73
2018-11-10T17:20:49.667Z,25.87
2018-11-10T17:23:53.776Z,25.33
2018-11-10T17:26:57.887Z,25.43
2018-11-10T17:30:02.152Z,26.53
2018-11-10T17:33:06.289Z,27.80
2018-11-10T17:36:10.443Z,28.13
2018-11-10T17:39:14.622Z,24.47
2018-11-10T17:42:18.762Z,31.23
2018-11-10T17:45:22.789Z,24.93
2018-11-10T17:48:26.883Z,27.83
2018-11-10T17:51:30.964Z,25.17
2018-11-10T17:54:35.140Z,26.37
2018-11-10T17:57:39.656Z,27.93
2018-11-10T18:00:43.820Z,29.27
2018-11-10T18:03:47.964Z,25.50
2018-11-10T18:06:52.091Z,33.03
2018-11-10T18:09:56.313Z,27.77
2018-11-10T18:13:00.557Z,32.30
2018-11-10T18:16:04.883Z,27.00
2018-11-10T18:19:09.227Z,31.60
2018-11-10T18:22:13.254Z,29.87
2018-11-10T18:25:17.372Z,27.57
2018-11-10T18:28:21.482Z,28.47
2018-11-10T18:31:25.597Z,27.07
2018-11-10T18:34:29.751Z,28.10
2018-11-10T18:37:34.066Z,30.70
2018-11-10T18:40:38.154Z,29.20
2018-11-10T18:43:42.269Z,34.80
2018-11-10T18:46:46.543Z,27.47
2018-11-10T18:49:50.626Z,28.83
2018-11-10T18:52:54.849Z,34.23
2018-11-10T18:55:58.973Z,32.73
2018-11-10T18:59:03.112Z,29.90
2018-11-10T19:02:07.244Z,27.07
2018-11-10T19:05:12.865Z,28.47
2018-11-10T19:08:17.103Z,33.47
2018-11-10T19:11:21.220Z,23.00
2018-11-10T19:14:25.283Z,33.87
2018-11-10T19:17:29.422Z,28.93
2018-11-10T19:20:33.642Z,27.13
2018-11-10T19:23:37.754Z,30.30
2018-11-10T19:26:41.862Z,23.20
2018-11-10T19:29:45.923Z,33.27
2018-11-10T19:32:50.787Z,29.57
2018-11-10T19:35:54.869Z,23.43
2018-11-10T19:38:58.974Z,27.07
2018-11-10T19:42:03.180Z,26.27
2018-11-10T19:45:08.462Z,26.17
2018-11-10T19:48:12.624Z,24.73
2018-11-10T19:51:17.229Z,24.77
2018-11-10T19:54:21.251Z,24.27
2018-11-10T19:57:25.356Z,25.33
2018-11-10T20:00:29.499Z,24.70
2018-11-10T20:03:33.635Z,23.20
2018-11-10T20:06:37.722Z,24.20
2018-11-10T20:09:41.823Z,27.30
2018-11-10T20:12:46.092Z,22.57
2018-11-10T20:15:50.218Z,22.00
2018-11-10T20:18:54.319Z,26.87
2018-11-10T20:21:58.406Z,26.13
2018-11-10T20:25:02.484Z,22.50
2018-11-10T20:28:06.622Z,23.30
2018-11-10T20:31:10.842Z,26.43
2018-11-10T20:34:15.207Z,24.33
2018-11-10T20:37:19.287Z,26.20
2018-11-10T20:40:23.510Z,30.07
2018-11-10T20:43:27.573Z,24.53
2018-11-10T20:46:31.803Z,27.50
2018-11-10T20:49:35.967Z,27.40
2018-11-10T20:52:40.073Z,25.07
2018-11-10T20:55:44.325Z,25.43
2018-11-10T20:58:48.442Z,22.60
2018-11-10T21:01:52.532Z,24.33
2018-11-10T21:04:56.746Z,26.83
2018-11-10T21:08:00.862Z,26.57
2018-11-10T21:11:05.420Z,25.57
2018-11-10T21:14:11.140Z,26.67
2018-11-10T21:17:16.071Z,21.57
2018-11-10T21:20:20.247Z,17.20
2018-11-10T21:23:24.575Z,22.97
2018-11-10T21:26:28.703Z,29.27
2018-11-10T21:29:32.940Z,20.73
2018-11-10T21:32:37.022Z,23.90
2018-11-10T21:35:41.229Z,23.30
2018-11-10T21:38:45.295Z,20.77
2018-11-10T21:41:49.385Z,21.07
2018-11-10T21:44:53.506Z,24.93
2018-11-10T21:47:57.620Z,23.43
2018-11-10T21:51:01.716Z,22.57
2018-11-10T21:54:06.178Z,22.33
2018-11-10T21:57:10.268Z,25.47
2018-11-10T22:00:16.608Z,21.07
2018-11-10T22:03:20.786Z,25.77
2018-11-10T22:06:24.863Z,22.27
2018-11-10T22:09:29.138Z,18.57
2018-11-10T22:12:33.147Z,25.93
2018-11-10T22:15:37.231Z,21.77
2018-11-10T22:18:41.768Z,25.10
2018-11-10T22:21:45.882Z,23.40
2018-11-10T22:24:49.943Z,25.27
2018-11-10T22:27:54.634Z,21.53
2018-11-10T22:30:59.043Z,24.43
2018-11-10T22:34:03.063Z,30.23
2018-11-10T22:37:07.293Z,22.03
2018-11-10T22:40:14.126Z,22.47
2018-11-10T22:43:18.210Z,28.37
2018-11-10T22:46:22.274Z,24.80
2018-11-10T22:49:26.342Z,25.03
2018-11-10T22:52:30.428Z,26.10
2018-11-10T22:55:34.509Z,25.97
2018-11-10T22:58:38.600Z,22.03
2018-11-10T23:01:42.681Z,32.63
2018-11-10T23:04:46.894Z,27.80
2018-11-10T23:07:50.986Z,23.33
2018-11-10T23:10:55.197Z,26.77
2018-11-10T23:13:59.314Z,28.13
2018-11-10T23:17:03.523Z,27.33
2018-11-10T23:20:09.411Z,22.53
2018-11-10T23:23:13.620Z,22.43
2018-11-10T23:26:17.621Z,27.90
2018-11-10T23:29:21.794Z,26.70
2018-11-10T23:32:25.977Z,23.70
2018-11-10T23:35:30.037Z,23.50
2018-11-10T23:38:34.313Z,24.13
2018-11-10T23:41:39.180Z,24.63
2018-11-10T23:44:43.320Z,24.33
2018-11-10T23:47:47.475Z,22.17
2018-11-10T23:50:51.526Z,20.33
2018-11-10T23:53:55.684Z,23.07
2018-11-10T23:57:00.065Z,20.97
